Time;durP1;ratioP1;P1;durP2;ratioP2;P2;SDS_P1;SDS_P2;PMS_P1;PMS_P2;Temp;Humidity;BMP_temperature;BMP_pressure;BME280_temperature;BME280_humidity;BME280_pressure;Samples;Min_cycle;Max_cycle;Signal;HPM_P1;HPM_P2
2023/09/27 00:01:24;;;;;;;7.93;4.40;;;;;;;16.05;77.67;100388.47;6180527;23;20024;-86
2023/09/27 00:03:51;;;;;;;7.15;4.32;;;;;;;16.05;78.02;100389.31;6182691;23;20025;-86
2023/09/27 00:06:18;;;;;;;5.95;4.28;;;;;;;16.04;77.88;100387.63;6205735;23;20020;-85
2023/09/27 00:08:45;;;;;;;6.60;4.60;;;;;;;16.03;77.79;100387.81;6206351;23;20075;-86
2023/09/27 00:11:12;;;;;;;7.60;4.55;;;;;;;16.05;77.71;100383.09;6204534;23;20016;-86
2023/09/27 00:13:39;;;;;;;6.97;5.15;;;;;;;16.06;77.54;100382.13;6156201;23;20024;-85
2023/09/27 00:16:05;;;;;;;7.75;4.43;;;;;;;16.06;77.43;100384.81;6180156;23;20356;-86
2023/09/27 00:18:33;;;;;;;5.75;5.15;;;;;;;16.05;77.17;100385.78;6202994;23;20024;-85
2023/09/27 00:21:00;;;;;;;7.32;4.60;;;;;;;16.02;76.99;100388.78;6176449;23;20020;-86
2023/09/27 00:23:26;;;;;;;5.07;4.00;;;;;;;16.01;77.03;100390.63;6204696;23;20444;-85
2023/09/27 00:25:53;;;;;;;8.05;4.25;;;;;;;16.02;76.89;100386.94;6178813;23;20016;-86
2023/09/27 00:28:20;;;;;;;5.47;4.10;;;;;;;16.00;76.88;100386.28;6155104;23;20521;-85
2023/09/27 00:30:50;;;;;;;8.48;4.55;;;;;;;15.99;76.54;100394.47;6205008;23;20452;-86
2023/09/27 00:33:17;;;;;;;7.32;4.75;;;;;;;15.95;76.92;100393.94;6179675;23;20024;-86
2023/09/27 00:35:48;;;;;;;6.40;4.18;;;;;;;15.93;76.37;100395.94;6181323;23;20013;-86
2023/09/27 00:38:15;;;;;;;7.07;4.38;;;;;;;15.93;76.61;100387.91;6180693;23;20108;-86
2023/09/27 00:40:47;;;;;;;6.75;4.35;;;;;;;15.89;76.21;100397.22;6206167;23;20373;-86
2023/09/27 00:43:43;;;;;;;4.93;4.30;;;;;;;15.72;76.38;100396.28;6180280;23;20024;-86
2023/09/27 00:46:12;;;;;;;5.57;4.00;;;;;;;15.87;76.65;100399.22;6174097;23;20055;-86
2023/09/27 00:48:39;;;;;;;7.00;4.30;;;;;;;15.86;76.56;100410.94;6181609;23;20445;-86
2023/09/27 00:51:06;;;;;;;4.45;4.05;;;;;;;15.87;76.63;100414.44;6155799;23;20087;-86
2023/09/27 00:53:34;;;;;;;6.35;4.15;;;;;;;15.85;76.30;100409.28;6205154;23;20027;-85
2023/09/27 00:56:01;;;;;;;7.05;4.10;;;;;;;15.83;76.33;100417.44;6181395;23;20012;-86
2023/09/27 00:58:32;;;;;;;5.63;3.85;;;;;;;15.84;76.23;100412.94;6205947;23;20027;-86
2023/09/27 01:00:59;;;;;;;5.32;4.30;;;;;;;15.81;76.28;100410.56;6180098;23;20020;-85
2023/09/27 01:03:26;;;;;;;4.63;3.80;;;;;;;15.77;75.64;100403.81;6203974;23;20020;-85
2023/09/27 01:05:54;;;;;;;5.85;4.10;;;;;;;15.77;75.54;100406.50;6155420;23;20032;-85
2023/09/27 01:08:21;;;;;;;5.60;3.75;;;;;;;15.73;76.02;100408.66;6178726;23;20044;-86
2023/09/27 01:10:48;;;;;;;5.05;3.95;;;;;;;15.74;75.95;100410.34;6180195;23;20037;-86
2023/09/27 01:13:15;;;;;;;9.10;4.13;;;;;;;15.71;76.45;100407.97;6179461;23;20099;-86
2023/09/27 01:15:42;;;;;;;6.47;4.43;;;;;;;15.70;76.24;100405.44;6204795;23;20023;-86
2023/09/27 01:18:08;;;;;;;6.65;4.00;;;;;;;15.70;75.60;100402.75;6155464;23;20488;-86
2023/09/27 01:20:35;;;;;;;6.93;4.22;;;;;;;15.66;75.43;100406.72;6206359;23;20035;-86
2023/09/27 01:23:03;;;;;;;4.68;4.13;;;;;;;15.66;75.37;100407.56;6181591;23;20021;-86
2023/09/27 01:25:32;;;;;;;4.38;3.97;;;;;;;15.66;75.79;100415.59;6183221;23;20078;-86
2023/09/27 01:28:00;;;;;;;8.43;4.15;;;;;;;15.65;75.67;100413.94;6207475;23;20088;-86
2023/09/27 01:30:34;;;;;;;6.18;3.95;;;;;;;15.63;76.16;100411.38;6207127;23;20016;-86
2023/09/27 01:33:06;;;;;;;5.15;3.75;;;;;;;15.64;75.74;100410.38;6182200;23;20384;-86
2023/09/27 01:35:34;;;;;;;4.27;3.87;;;;;;;15.62;75.76;100409.72;6207075;23;20514;-86
2023/09/27 01:38:02;;;;;;;5.20;4.30;;;;;;;15.61;75.61;100415.22;6181984;23;20020;-86
2023/09/27 01:40:32;;;;;;;6.28;4.13;;;;;;;15.60;75.55;100410.88;6182225;23;20017;-86
2023/09/27 01:43:00;;;;;;;4.82;3.78;;;;;;;15.57;75.07;100420.06;6206347;23;20091;-86
2023/09/27 01:45:29;;;;;;;4.63;3.85;;;;;;;15.53;74.99;100410.63;6206091;23;20019;-86
2023/09/27 01:47:56;;;;;;;6.85;4.22;;;;;;;15.51;74.62;100409.94;6133102;23;20328;-85
2023/09/27 01:50:24;;;;;;;6.32;3.97;;;;;;;15.49;74.69;100417.28;6182013;23;20016;-85
2023/09/27 01:52:52;;;;;;;5.95;4.10;;;;;;;15.47;74.73;100413.94;6182191;23;20021;-86
2023/09/27 01:55:19;;;;;;;7.32;4.25;;;;;;;15.44;74.60;100406.19;6181517;23;20099;-86
2023/09/27 01:57:46;;;;;;;4.47;4.07;;;;;;;15.40;74.77;100407.50;6157055;23;20020;-85
2023/09/27 02:00:14;;;;;;;7.80;3.90;;;;;;;15.39;74.98;100403.13;6207568;23;20028;-86
2023/09/27 02:02:43;;;;;;;5.95;4.13;;;;;;;15.38;75.08;100406.81;6156177;23;20028;-86
2023/09/27 02:05:10;;;;;;;6.38;4.50;;;;;;;15.37;75.45;100402.47;6157480;23;20032;-86
2023/09/27 02:07:40;;;;;;;5.03;4.22;;;;;;;15.38;76.01;100407.66;6181847;23;20055;-86
2023/09/27 02:10:11;;;;;;;8.73;4.88;;;;;;;15.36;76.70;100404.28;6157612;23;20029;-86
2023/09/27 02:12:38;;;;;;;6.07;4.95;;;;;;;15.40;77.04;100405.66;6206543;23;20051;-86
2023/09/27 02:15:10;;;;;;;6.32;5.13;;;;;;;15.44;77.41;100416.06;6206750;23;20040;-86
2023/09/27 02:17:37;;;;;;;6.88;4.88;;;;;;;15.44;77.35;100411.53;6157054;23;20024;-86
2023/09/27 02:20:10;;;;;;;6.40;4.50;;;;;;;15.36;77.93;100409.63;6156834;23;20024;-86
2023/09/27 02:22:38;;;;;;;5.20;4.60;;;;;;;15.39;77.51;100413.84;6181324;23;20017;-86
2023/09/27 02:25:09;;;;;;;6.60;5.03;;;;;;;15.33;78.13;100406.44;6207160;23;20084;-86
2023/09/27 02:27:36;;;;;;;5.60;4.32;;;;;;;15.35;77.43;100401.78;6156764;23;20020;-86
2023/09/27 02:30:06;;;;;;;5.07;4.55;;;;;;;15.37;77.04;100405.16;6181639;23;20088;-86
2023/09/27 02:32:34;;;;;;;6.68;4.63;;;;;;;15.36;77.10;100412.31;6155589;23;20096;-86
2023/09/27 02:35:02;;;;;;;6.22;3.90;;;;;;;15.33;76.83;100406.44;6182453;23;20024;-86
2023/09/27 02:37:30;;;;;;;3.85;3.45;;;;;;;15.30;76.65;100404.06;6180670;23;20024;-86
2023/09/27 02:39:57;;;;;;;5.50;3.70;;;;;;;15.29;76.33;100400.56;6181836;23;20021;-86
2023/09/27 02:42:23;;;;;;;4.97;3.90;;;;;;;15.28;76.46;100385.47;6208408;23;20040;-86
2023/09/27 02:44:50;;;;;;;5.22;3.97;;;;;;;15.31;76.13;100395.88;6147976;23;20051;-86
2023/09/27 02:47:17;;;;;;;4.75;4.05;;;;;;;15.27;75.97;100383.81;6181464;23;20020;-86
2023/09/27 02:49:44;;;;;;;6.75;4.03;;;;;;;15.26;75.68;100386.63;6157079;23;20044;-86
2023/09/27 02:52:11;;;;;;;6.20;4.07;;;;;;;15.23;75.59;100379.75;6181708;23;20024;-86
2023/09/27 02:54:39;;;;;;;7.00;4.38;;;;;;;15.22;75.29;100377.25;6181602;23;20024;-87
2023/09/27 02:57:05;;;;;;;4.82;4.10;;;;;;;15.19;75.33;100383.75;6207193;23;20471;-86
2023/09/27 02:59:32;;;;;;;4.28;3.88;;;;;;;15.18;75.38;100385.53;6208887;23;20071;-86
2023/09/27 03:02:00;;;;;;;4.90;4.07;;;;;;;15.17;75.11;100385.72;6131378;23;20029;-86
2023/09/27 03:04:27;;;;;;;6.30;4.22;;;;;;;15.15;74.91;100390.38;6181547;23;20013;-86
2023/09/27 03:06:55;;;;;;;4.65;4.25;;;;;;;15.12;75.08;100377.31;6180417;23;20036;-86
2023/09/27 03:09:22;;;;;;;5.35;4.45;;;;;;;15.10;74.91;100392.66;6206698;23;20031;-86
2023/09/27 03:11:49;;;;;;;5.63;3.88;;;;;;;15.09;75.27;100404.38;6180444;23;20024;-86
2023/09/27 03:14:15;;;;;;;6.10;4.75;;;;;;;15.05;74.96;100401.13;6206016;23;20020;-85
2023/09/27 03:16:43;;;;;;;5.07;4.50;;;;;;;15.04;74.95;100412.00;6155620;23;20076;-85
2023/09/27 03:19:09;;;;;;;5.13;4.35;;;;;;;15.00;75.09;100422.13;6179898;23;20322;-86
2023/09/27 03:21:36;;;;;;;5.40;4.43;;;;;;;14.96;75.30;100413.59;6179817;23;20332;-85
2023/09/27 03:24:04;;;;;;;5.50;3.55;;;;;;;14.98;75.35;100416.09;6181081;23;20108;-85
2023/09/27 03:26:30;;;;;;;5.15;4.10;;;;;;;14.96;75.27;100415.44;6205717;23;20023;-85
2023/09/27 03:28:57;;;;;;;6.28;4.35;;;;;;;14.94;74.83;100412.88;6180850;23;20024;-86
2023/09/27 03:31:24;;;;;;;4.32;3.60;;;;;;;14.93;74.27;100421.03;6180820;23;20032;-86
2023/09/27 03:33:51;;;;;;;7.47;4.10;;;;;;;14.89;74.40;100420.53;6206008;23;20032;-85
2023/09/27 03:36:18;;;;;;;6.45;3.63;;;;;;;14.84;74.32;100425.47;6181142;23;20043;-85
2023/09/27 03:38:46;;;;;;;6.43;3.95;;;;;;;14.80;74.07;100417.88;6155685;23;20512;-85
2023/09/27 03:41:12;;;;;;;5.65;4.18;;;;;;;14.78;73.78;100420.69;6207404;23;20025;-85
2023/09/27 03:43:39;;;;;;;5.20;4.70;;;;;;;14.76;73.86;100417.34;6179073;23;20027;-85
2023/09/27 03:46:06;;;;;;;11.02;9.05;;;;;;;14.80;73.88;100421.41;6180390;23;20082;-85
2023/09/27 03:48:34;;;;;;;14.43;11.32;;;;;;;14.80;73.48;100413.38;6130284;23;20059;-86
2023/09/27 03:51:01;;;;;;;9.23;7.57;;;;;;;14.79;73.63;100414.38;6203501;23;20024;-85
2023/09/27 03:53:29;;;;;;;10.05;5.78;;;;;;;14.72;73.36;100408.78;6177870;23;20021;-85
2023/09/27 03:55:56;;;;;;;8.00;4.72;;;;;;;14.71;73.46;100417.78;6204591;23;20042;-85
2023/09/27 03:58:23;;;;;;;4.93;4.38;;;;;;;14.69;73.60;100425.13;6178934;23;20016;-86
2023/09/27 04:00:50;;;;;;;4.78;4.05;;;;;;;14.68;73.64;100420.78;6179242;23;20052;-85
2023/09/27 04:03:17;;;;;;;6.43;4.20;;;;;;;14.68;73.50;100426.13;6153389;23;20082;-86
2023/09/27 04:05:44;;;;;;;5.10;3.70;;;;;;;14.68;73.34;100434.13;6179821;23;20025;-85
2023/09/27 04:08:11;;;;;;;5.38;3.95;;;;;;;14.66;73.43;100444.13;6205516;23;20080;-86
2023/09/27 04:10:38;;;;;;;7.97;4.20;;;;;;;14.66;74.11;100432.59;6179147;23;20023;-85
2023/09/27 04:13:05;;;;;;;5.47;4.60;;;;;;;14.69;74.77;100438.47;6156325;23;20066;-85
2023/09/27 04:15:35;;;;;;;5.90;4.80;;;;;;;14.65;75.46;100442.44;6179637;23;20020;-88
2023/09/27 04:18:03;;;;;;;15.25;5.45;;;;;;;14.70;76.03;100442.81;6181597;23;20091;-85
2023/09/27 04:20:30;;;;;;;5.32;4.50;;;;;;;14.67;76.39;100443.13;6205034;23;20579;-91
2023/09/27 04:22:59;;;;;;;7.03;5.30;;;;;;;14.66;76.72;100444.13;6130845;23;20032;-90
2023/09/27 04:25:27;;;;;;;7.97;5.60;;;;;;;14.64;77.52;100450.63;6178123;23;20036;-88
2023/09/27 04:27:54;;;;;;;5.32;4.75;;;;;;;14.66;77.36;100451.31;6203361;23;20088;-86
2023/09/27 04:30:22;;;;;;;7.05;4.93;;;;;;;14.66;77.11;100452.16;6179524;23;20075;-86
2023/09/27 04:32:50;;;;;;;4.97;4.03;;;;;;;14.66;77.01;100456.66;6156165;23;20079;-87
2023/09/27 04:35:19;;;;;;;6.68;4.93;;;;;;;14.68;76.68;100455.53;6205824;23;20028;-86
2023/09/27 04:37:47;;;;;;;7.05;4.68;;;;;;;14.65;77.09;100463.81;6198909;23;20112;-87
2023/09/27 04:40:14;;;;;;;7.57;5.43;;;;;;;14.65;77.03;100463.81;6204587;23;20039;-87
2023/09/27 04:42:42;;;;;;;8.02;5.60;;;;;;;14.67;77.38;100469.84;6180671;23;20024;-87
2023/09/27 04:45:11;;;;;;;8.40;5.53;;;;;;;14.65;77.33;100487.88;6178609;23;20044;-86
2023/09/27 04:47:40;;;;;;;11.98;6.40;;;;;;;14.67;77.81;100493.09;6176778;23;20017;-86
2023/09/27 04:50:09;;;;;;;11.05;6.13;;;;;;;14.64;78.19;100490.72;6203654;23;20028;-85
2023/09/27 04:52:37;;;;;;;20.02;6.40;;;;;;;14.62;78.31;100490.84;6178973;23;20071;-87
2023/09/27 04:55:05;;;;;;;12.73;6.55;;;;;;;14.61;78.76;100491.00;6178948;23;20008;-86
2023/09/27 04:57:32;;;;;;;9.27;6.03;;;;;;;14.59;78.97;100487.63;6179451;23;20032;-86
2023/09/27 04:59:58;;;;;;;11.60;6.40;;;;;;;14.63;78.94;100479.19;6206141;23;20127;-86
2023/09/27 05:02:27;;;;;;;7.47;5.68;;;;;;;14.62;79.18;100477.47;6180404;23;20024;-86
2023/09/27 05:04:54;;;;;;;11.52;6.93;;;;;;;14.63;79.36;100475.63;6154981;23;20364;-85
2023/09/27 05:07:20;;;;;;;12.95;7.38;;;;;;;14.64;79.08;100470.16;6155336;23;20024;-85
2023/09/27 05:09:47;;;;;;;11.90;7.15;;;;;;;14.65;79.08;100471.81;6180813;23;20044;-86
2023/09/27 05:12:14;;;;;;;11.45;6.68;;;;;;;14.67;79.05;100463.69;6203878;23;20475;-85
2023/09/27 05:14:41;;;;;;;14.48;7.25;;;;;;;14.65;79.19;100466.47;6178207;23;20099;-85
2023/09/27 05:17:09;;;;;;;12.43;7.40;;;;;;;14.67;79.24;100469.03;6201866;23;20091;-85
2023/09/27 05:19:36;;;;;;;15.00;6.70;;;;;;;14.65;79.15;100454.97;6144406;23;20020;-86
2023/09/27 05:22:03;;;;;;;9.73;7.10;;;;;;;14.64;78.79;100455.97;6178478;23;20449;-86
2023/09/27 05:24:32;;;;;;;7.80;5.20;;;;;;;14.61;78.50;100459.75;6177081;23;20058;-86
2023/09/27 05:27:03;;;;;;;6.82;5.07;;;;;;;14.58;77.96;100453.84;6178089;23;20457;-85
2023/09/27 05:29:30;;;;;;;5.82;4.70;;;;;;;14.52;77.74;100456.09;6202911;23;20572;-86
2023/09/27 05:31:57;;;;;;;7.10;5.43;;;;;;;14.50;77.81;100452.75;6202338;23;20020;-86
2023/09/27 05:34:23;;;;;;;10.43;5.80;;;;;;;14.53;77.28;100468.50;6177003;23;20028;-86
2023/09/27 05:36:50;;;;;;;11.10;6.00;;;;;;;14.46;77.45;100461.19;6178415;23;20040;-86
2023/09/27 05:39:17;;;;;;;10.75;6.03;;;;;;;14.46;77.77;100459.34;6178494;23;20522;-86
2023/09/27 05:41:44;;;;;;;9.15;5.82;;;;;;;14.45;77.85;100463.03;6177942;23;20055;-86
2023/09/27 05:44:11;;;;;;;7.40;5.18;;;;;;;14.45;77.77;100479.06;6202986;23;20099;-86
2023/09/27 05:46:40;;;;;;;7.68;5.95;;;;;;;14.45;78.21;100472.84;6177037;23;20024;-86
2023/09/27 05:49:09;;;;;;;15.00;5.80;;;;;;;14.42;78.46;100471.31;6151489;23;20017;-85
2023/09/27 05:51:36;;;;;;;12.20;5.50;;;;;;;14.44;78.45;100473.84;6154725;23;20107;-86
2023/09/27 05:54:05;;;;;;;11.30;4.97;;;;;;;14.42;78.80;100486.50;6203612;23;20043;-86
2023/09/27 05:56:37;;;;;;;11.02;5.15;;;;;;;14.41;78.73;100487.50;6202223;23;20017;-86
2023/09/27 05:59:08;;;;;;;10.52;5.65;;;;;;;14.38;79.05;100483.28;6179078;23;20038;-86
2023/09/27 06:01:35;;;;;;;11.15;5.90;;;;;;;14.39;78.90;100492.16;6153895;23;20028;-85
2023/09/27 06:04:03;;;;;;;23.23;5.70;;;;;;;14.39;79.32;100490.31;6152902;23;20016;-85
2023/09/27 06:06:30;;;;;;;13.30;6.10;;;;;;;14.38;79.18;100485.97;6204029;23;20405;-86
2023/09/27 06:08:57;;;;;;;10.65;6.07;;;;;;;14.40;79.19;100485.81;6201215;23;20479;-86
2023/09/27 06:11:24;;;;;;;8.43;5.30;;;;;;;14.42;79.25;100489.19;6179953;23;20075;-86
2023/09/27 06:13:51;;;;;;;8.07;5.40;;;;;;;14.41;79.34;100493.69;6177888;23;20493;-85
2023/09/27 06:16:19;;;;;;;9.18;6.05;;;;;;;14.40;79.29;100494.69;6201781;23;20020;-86
2023/09/27 06:18:46;;;;;;;9.65;6.32;;;;;;;14.43;79.71;100504.25;6154255;23;20494;-86
2023/09/27 06:21:13;;;;;;;9.27;5.88;;;;;;;14.45;79.53;100504.91;6203509;23;20244;-86
2023/09/27 06:23:40;;;;;;;9.70;6.60;;;;;;;14.43;79.88;100496.22;6205034;23;20020;-86
2023/09/27 06:26:08;;;;;;;8.85;5.45;;;;;;;14.40;79.83;100500.03;6203087;23;20025;-86
2023/09/27 06:28:37;;;;;;;9.10;6.38;;;;;;;14.39;79.69;100497.50;6177413;23;20021;-86
2023/09/27 06:31:07;;;;;;;13.00;5.80;;;;;;;14.37;79.44;100510.16;6201049;23;20032;-86
2023/09/27 06:33:39;;;;;;;7.95;5.60;;;;;;;14.38;79.51;100509.19;6154741;23;20028;-86
2023/09/27 06:36:08;;;;;;;8.52;5.78;;;;;;;14.37;79.20;100502.13;6180402;23;20013;-86
2023/09/27 06:38:35;;;;;;;6.72;5.35;;;;;;;14.38;79.26;100506.50;6204364;23;20020;-86
2023/09/27 06:41:02;;;;;;;6.90;5.45;;;;;;;14.40;79.46;100501.84;6202929;23;20051;-86
2023/09/27 06:43:30;;;;;;;7.53;5.38;;;;;;;14.35;79.71;100510.31;6201893;23;20100;-86
2023/09/27 06:45:58;;;;;;;8.85;5.80;;;;;;;14.37;79.10;100507.47;6177582;23;20056;-86
2023/09/27 06:48:25;;;;;;;13.48;6.78;;;;;;;14.36;79.71;100509.31;6175327;23;20032;-86
2023/09/27 06:50:52;;;;;;;9.18;5.72;;;;;;;14.36;79.79;100509.31;6154821;23;20023;-85
2023/09/27 06:53:19;;;;;;;6.68;5.30;;;;;;;14.40;79.22;100508.03;6153430;23;20083;-86
2023/09/27 06:55:53;;;;;;;8.43;5.90;;;;;;;14.45;79.54;100515.59;6202122;23;20074;-85
2023/09/27 06:58:23;;;;;;;8.45;6.10;;;;;;;14.47;80.00;100506.47;6203761;23;20039;-85
2023/09/27 07:00:51;;;;;;;7.60;5.60;;;;;;;14.52;80.31;100503.34;6155039;23;20021;-85
2023/09/27 07:03:24;;;;;;;7.38;5.78;;;;;;;14.54;80.62;100507.59;6204024;23;20021;-85
2023/09/27 07:05:52;;;;;;;9.32;5.45;;;;;;;14.58;80.72;100509.97;6154336;23;20032;-85
2023/09/27 07:08:19;;;;;;;7.22;5.18;;;;;;;14.60;80.31;100524.88;6176546;23;20706;-86
2023/09/27 07:10:47;;;;;;;9.13;6.30;;;;;;;14.63;79.95;100518.41;6153857;23;20096;-86
2023/09/27 07:13:13;;;;;;;7.75;5.97;;;;;;;14.62;79.67;100522.06;6202956;23;20033;-85
2023/09/27 07:15:40;;;;;;;8.70;6.30;;;;;;;14.63;79.91;100516.59;6201698;23;20013;-85
2023/09/27 07:18:07;;;;;;;7.43;5.78;;;;;;;14.66;80.50;100518.97;6175307;23;20035;-86
2023/09/27 07:20:36;;;;;;;6.80;5.18;;;;;;;14.67;80.54;100520.66;6177473;23;20032;-86
2023/09/27 07:23:14;;;;;;;8.55;5.03;;;;;;;14.71;80.00;100522.06;6177789;23;20012;-86
2023/09/27 07:25:43;;;;;;;6.40;5.28;;;;;;;14.72;80.01;100510.34;6201373;23;20754;-85
2023/09/27 07:28:10;;;;;;;6.50;5.40;;;;;;;14.74;80.65;100507.56;6175910;23;20801;-86
2023/09/27 07:30:37;;;;;;;6.72;5.00;;;;;;;14.79;80.52;100513.31;6202582;23;20097;-86
2023/09/27 07:33:11;;;;;;;6.60;5.47;;;;;;;14.81;80.89;100515.81;6177244;23;20020;-85
2023/09/27 07:35:43;;;;;;;5.63;5.03;;;;;;;14.83;80.69;100509.31;6178627;23;20025;-85
2023/09/27 07:38:10;;;;;;;5.63;4.83;;;;;;;14.88;81.00;100503.53;6201608;23;20025;-86
2023/09/27 07:40:38;;;;;;;5.30;4.40;;;;;;;14.92;81.22;100504.94;6153283;23;20341;-86
2023/09/27 07:43:05;;;;;;;5.30;4.80;;;;;;;14.96;81.19;100514.38;6202906;23;20480;-85
2023/09/27 07:45:35;;;;;;;5.47;4.90;;;;;;;14.97;81.54;100513.38;6201620;23;20018;-86
2023/09/27 07:48:03;;;;;;;6.03;4.80;;;;;;;14.96;81.81;100506.34;6201676;23;20406;-86
2023/09/27 07:50:31;;;;;;;4.13;3.72;;;;;;;15.01;81.94;100511.22;6176545;23;20032;-86
2023/09/27 07:53:03;;;;;;;6.40;4.43;;;;;;;15.04;82.30;100503.78;6201582;23;20099;-85
2023/09/27 07:55:33;;;;;;;5.20;4.10;;;;;;;15.05;81.92;100507.28;6200954;23;20146;-85
2023/09/27 07:58:00;;;;;;;5.28;4.75;;;;;;;15.07;81.88;100511.50;6201736;23;20496;-85
2023/09/27 08:00:30;;;;;;;6.22;5.10;;;;;;;15.08;82.13;100512.31;6176423;23;20020;-85
2023/09/27 08:03:00;;;;;;;6.55;4.60;;;;;;;15.11;82.16;100509.34;6202425;23;20013;-86
2023/09/27 08:05:27;;;;;;;5.18;4.47;;;;;;;15.13;82.32;100505.53;6176260;23;20024;-85
2023/09/27 08:07:54;;;;;;;5.82;4.85;;;;;;;15.13;82.38;100508.22;6176513;23;20499;-85
2023/09/27 08:10:22;;;;;;;6.43;5.57;;;;;;;15.15;82.68;100508.91;6177409;23;20017;-85
2023/09/27 08:12:49;;;;;;;6.80;5.00;;;;;;;15.18;82.71;100502.41;6176665;23;22643;-85
2023/09/27 08:15:17;;;;;;;6.22;5.28;;;;;;;15.22;82.82;100500.31;6175809;23;20024;-85
2023/09/27 08:17:46;;;;;;;6.85;5.72;;;;;;;15.23;83.12;100499.31;6201602;23;20020;-85
2023/09/27 08:20:13;;;;;;;7.30;5.80;;;;;;;15.22;83.62;100509.16;6177248;23;20020;-85
2023/09/27 08:22:40;;;;;;;7.45;5.88;;;;;;;15.20;83.34;100500.44;6177351;23;20028;-85
2023/09/27 08:25:14;;;;;;;9.60;6.45;;;;;;;15.18;83.94;100508.59;6203599;23;20024;-85
2023/09/27 08:27:41;;;;;;;6.35;5.53;;;;;;;15.23;83.79;100502.81;6177510;23;20017;-85
2023/09/27 08:30:09;;;;;;;9.27;6.28;;;;;;;15.28;83.79;100505.03;6176565;23;20067;-85
2023/09/27 08:32:38;;;;;;;8.57;6.72;;;;;;;15.32;83.65;100501.94;6152708;23;20349;-85
2023/09/27 08:35:05;;;;;;;11.77;7.72;;;;;;;15.33;83.91;100492.91;6178396;23;20445;-85
2023/09/27 08:37:32;;;;;;;12.10;8.40;;;;;;;15.39;84.13;100492.31;6174382;23;20024;-86
2023/09/27 08:39:59;;;;;;;11.55;8.52;;;;;;;15.43;84.22;100490.16;6152523;23;20020;-85
2023/09/27 08:42:25;;;;;;;16.90;10.00;;;;;;;15.47;84.54;100485.34;6153188;23;20564;-85
2023/09/27 08:44:52;;;;;;;12.30;8.82;;;;;;;15.47;84.43;100486.19;6201106;23;20071;-85
2023/09/27 08:47:20;;;;;;;11.50;7.88;;;;;;;15.53;84.55;100476.72;6175735;23;20020;-85
2023/09/27 08:49:50;;;;;;;9.55;7.60;;;;;;;15.56;84.94;100468.38;6203331;23;20025;-85
2023/09/27 08:52:17;;;;;;;11.90;9.35;;;;;;;15.62;85.29;100467.75;6151868;23;20024;-85
2023/09/27 08:54:43;;;;;;;15.52;9.30;;;;;;;15.66;85.15;100462.94;6151815;23;20021;-85
2023/09/27 08:57:11;;;;;;;13.93;9.52;;;;;;;15.69;85.16;100458.16;6201739;23;20082;-86
2023/09/27 08:59:38;;;;;;;15.57;8.63;;;;;;;15.73;84.99;100451.50;6178806;23;20024;-85
2023/09/27 09:02:06;;;;;;;13.23;9.07;;;;;;;15.79;85.30;100447.38;6153652;23;20115;-86
2023/09/27 09:04:33;;;;;;;12.65;9.45;;;;;;;15.84;85.86;100448.56;6150570;23;20020;-85
2023/09/27 09:07:01;;;;;;;16.52;9.85;;;;;;;15.86;85.96;100437.72;6202489;23;20401;-85
2023/09/27 09:09:30;;;;;;;11.85;8.85;;;;;;;15.93;86.24;100436.09;6201805;23;20036;-85
2023/09/27 09:12:00;;;;;;;12.18;8.20;;;;;;;15.98;86.36;100430.28;6175787;23;20024;-85
2023/09/27 09:14:37;;;;;;;14.48;9.73;;;;;;;15.98;86.70;100419.56;6176624;23;20023;-85
2023/09/27 09:17:07;;;;;;;14.10;9.77;;;;;;;16.05;85.99;100413.44;6174664;23;20020;-85
2023/09/27 09:19:37;;;;;;;17.27;10.48;;;;;;;16.09;86.33;100411.28;6176736;23;20025;-85
2023/09/27 09:22:12;;;;;;;12.65;9.20;;;;;;;16.14;86.09;100405.44;6199775;23;20047;-85
2023/09/27 09:24:42;;;;;;;12.20;9.40;;;;;;;16.16;86.28;100406.13;6153770;23;20043;-85
2023/09/27 09:27:16;;;;;;;12.60;9.35;;;;;;;16.21;86.24;100407.34;6176007;23;20039;-85
2023/09/27 09:29:52;;;;;;;15.07;10.38;;;;;;;16.25;86.27;100405.16;6152902;23;20021;-85
2023/09/27 09:32:20;;;;;;;15.27;9.70;;;;;;;16.29;86.49;100406.53;6203102;23;20028;-85
2023/09/27 09:34:52;;;;;;;14.40;9.75;;;;;;;16.35;87.03;100410.41;6175670;23;20031;-85
2023/09/27 09:37:23;;;;;;;13.77;10.10;;;;;;;16.37;86.61;100401.22;6174288;23;20028;-84
2023/09/27 09:39:53;;;;;;;11.77;8.93;;;;;;;16.41;86.51;100393.69;6201853;23;20020;-84
2023/09/27 09:42:33;;;;;;;13.77;9.27;;;;;;;16.40;87.70;100387.50;6203244;23;20728;-85
2023/09/27 09:45:10;;;;;;;11.52;8.15;;;;;;;16.47;86.76;100387.69;6201986;23;20390;-85
2023/09/27 09:47:39;;;;;;;11.75;8.55;;;;;;;16.53;86.84;100378.16;6154983;23;20082;-85
2023/09/27 09:50:16;;;;;;;9.48;8.45;;;;;;;16.57;87.54;100371.50;6205512;23;20099;-85
2023/09/27 09:52:59;;;;;;;8.90;7.95;;;;;;;16.56;87.92;100373.31;6205076;23;20025;-84
2023/09/27 09:55:34;;;;;;;9.77;7.60;;;;;;;16.65;87.00;100371.53;6180135;23;20334;-85
2023/09/27 09:58:39;;;;;;;10.43;7.50;;;;;;;16.65;87.48;100358.94;6184141;23;20028;-85
2023/09/27 10:01:07;;;;;;;10.10;7.28;;;;;;;16.73;87.75;100358.13;6206439;23;20330;-85
2023/09/27 10:03:35;;;;;;;8.98;6.63;;;;;;;16.78;87.81;100357.69;6204597;23;20364;-85
2023/09/27 10:06:04;;;;;;;11.45;6.82;;;;;;;16.81;87.49;100346.63;6207349;23;20024;-84
2023/09/27 10:08:37;;;;;;;8.95;6.85;;;;;;;16.86;87.83;100355.03;6204073;23;20408;-85
2023/09/27 10:11:05;;;;;;;9.85;7.00;;;;;;;16.91;87.37;100352.69;6205166;23;20051;-85
2023/09/27 10:13:34;;;;;;;10.38;6.60;;;;;;;16.96;87.44;100341.47;6204255;23;20061;-85
2023/09/27 10:16:03;;;;;;;7.72;6.13;;;;;;;16.99;87.32;100349.19;6206226;23;20369;-85
2023/09/27 10:18:33;;;;;;;7.60;6.65;;;;;;;17.04;87.81;100339.63;6206748;23;20316;-85
2023/09/27 10:21:00;;;;;;;6.93;6.22;;;;;;;17.09;87.54;100341.81;6179948;23;20030;-85
2023/09/27 10:23:33;;;;;;;7.75;6.22;;;;;;;17.12;87.92;100342.34;6207016;23;20680;-85
2023/09/27 10:26:19;;;;;;;6.90;6.13;;;;;;;17.13;87.60;100335.13;6203828;23;20399;-85
2023/09/27 10:29:04;;;;;;;7.85;6.05;;;;;;;17.18;88.01;100332.78;6204780;23;20039;-85
2023/09/27 10:31:36;;;;;;;7.38;5.32;;;;;;;17.28;87.91;100330.78;6204608;23;20091;-85
2023/09/27 10:34:26;;;;;;;6.60;5.90;;;;;;;17.27;88.39;100334.44;6204950;23;20021;-85
2023/09/27 10:36:53;;;;;;;7.75;5.70;;;;;;;17.36;87.92;100329.94;6205401;23;20016;-85
2023/09/27 10:39:38;;;;;;;8.30;6.65;;;;;;;17.40;87.91;100331.25;6208436;23;20624;-86
2023/09/27 10:42:05;;;;;;;7.28;5.30;;;;;;;17.46;88.20;100333.28;6204834;23;20017;-85
2023/09/27 10:44:33;;;;;;;9.38;6.13;;;;;;;17.54;88.19;100332.44;6204859;23;20020;-85
2023/09/27 10:47:01;;;;;;;6.50;5.00;;;;;;;17.56;87.76;100328.59;6204608;23;20070;-85
2023/09/27 10:49:37;;;;;;;8.32;5.35;;;;;;;17.58;88.10;100328.44;6205268;23;20028;-85
2023/09/27 10:52:17;;;;;;;8.13;5.18;;;;;;;17.58;88.33;100323.06;6203848;23;20051;-85
2023/09/27 10:54:44;;;;;;;5.95;5.05;;;;;;;17.66;87.95;100323.03;6179178;23;20070;-85
2023/09/27 10:57:12;;;;;;;6.57;5.38;;;;;;;17.70;87.65;100320.84;6155001;23;20478;-85
2023/09/27 10:59:40;;;;;;;5.28;4.70;;;;;;;17.73;87.18;100317.81;6180466;23;20017;-85
2023/09/27 11:02:07;;;;;;;7.13;5.65;;;;;;;17.77;87.30;100316.47;6204484;23;20008;-85
2023/09/27 11:04:36;;;;;;;7.53;5.28;;;;;;;17.83;86.88;100309.59;6180061;23;20449;-85
2023/09/27 11:07:03;;;;;;;6.38;5.68;;;;;;;17.91;86.81;100314.97;6204465;23;20083;-86
2023/09/27 11:09:30;;;;;;;5.80;4.63;;;;;;;17.93;86.47;100312.94;6204797;23;20029;-85
2023/09/27 11:11:59;;;;;;;7.38;4.88;;;;;;;17.96;86.14;100305.41;6202819;23;20083;-86
2023/09/27 11:14:31;;;;;;;8.48;5.25;;;;;;;17.98;85.38;100308.72;6176564;23;20798;-85
2023/09/27 11:17:25;;;;;;;7.07;5.28;;;;;;;18.00;84.66;100298.66;6202645;23;20016;-85
2023/09/27 11:19:53;;;;;;;6.22;4.93;;;;;;;18.08;84.88;100291.56;6204792;23;20403;-86
2023/09/27 11:22:27;;;;;;;5.32;4.70;;;;;;;18.11;84.00;100293.91;6155105;23;20099;-86
2023/09/27 11:24:54;;;;;;;5.78;4.88;;;;;;;18.21;84.62;100290.00;6179061;23;20078;-86
2023/09/27 11:27:21;;;;;;;8.18;4.32;;;;;;;18.26;83.77;100284.09;6175587;23;20020;-86
2023/09/27 11:29:52;;;;;;;5.63;4.65;;;;;;;18.29;84.02;100278.38;6176461;23;20504;-86
2023/09/27 11:32:20;;;;;;;5.40;4.90;;;;;;;18.34;83.35;100275.16;6178287;23;20361;-86